createdAt,value
2023-04-07T00:03:06.994Z,99893.78
2023-04-07T00:08:10.606Z,99881.88
2023-04-07T00:13:13.568Z,99880.19
2023-04-07T00:18:16.376Z,99889.63
2023-04-07T00:23:19.946Z,99887.38
2023-04-07T00:28:22.932Z,99887.38
2023-04-07T00:33:26.291Z,99876.88
2023-04-07T00:38:29.229Z,99875.34
2023-04-07T00:43:32.281Z,99864.00
2023-04-07T00:48:36.599Z,99865.69
2023-04-07T00:53:39.794Z,99864.59
2023-04-07T00:58:44.484Z,99863.63
2023-04-07T01:03:59.445Z,99862.31
2023-04-07T01:09:12.264Z,99859.31
2023-04-07T01:14:18.146Z,99858.34
2023-04-07T01:19:53.344Z,99849.66
2023-04-07T01:26:00.539Z,99840.00
2023-04-07T01:31:05.711Z,99836.41
2023-04-07T01:36:10.438Z,99838.19
2023-04-07T01:41:15.586Z,99839.84
2023-04-07T01:46:18.426Z,99833.78
2023-04-07T01:51:23.440Z,99835.56
2023-04-07T01:56:26.432Z,99831.28
2023-04-07T02:01:29.959Z,99824.53
2023-04-07T02:06:39.655Z,99835.25
2023-04-07T02:11:45.527Z,99825.84
2023-04-07T02:16:49.306Z,99833.97
2023-04-07T02:21:53.180Z,99828.84
2023-04-07T02:26:56.412Z,99825.38
2023-04-07T02:31:59.211Z,99822.44
2023-04-07T02:37:02.271Z,99833.03
2023-04-07T02:42:05.704Z,99826.50
2023-04-07T02:47:08.936Z,99831.88
2023-04-07T02:52:12.717Z,99840.47
2023-04-07T02:57:15.765Z,99835.59
2023-04-07T03:02:19.317Z,99832.97
2023-04-07T03:07:22.343Z,99825.31
2023-04-07T03:12:25.709Z,99824.75
2023-04-07T03:17:28.756Z,99817.84
2023-04-07T03:22:32.085Z,99833.31
2023-04-07T03:27:35.086Z,99834.97
2023-04-07T03:32:38.127Z,99829.59
2023-04-07T03:37:41.158Z,99827.84
2023-04-07T03:42:44.075Z,99831.31
2023-04-07T03:47:47.283Z,99833.78
2023-04-07T03:52:50.229Z,99827.59
2023-04-07T03:57:53.273Z,99836.03
2023-04-07T04:02:56.276Z,99844.47
2023-04-07T04:07:59.260Z,99840.91
2023-04-07T04:13:04.072Z,99846.50
2023-04-07T04:18:07.098Z,99858.16
2023-04-07T04:23:10.168Z,99859.44
2023-04-07T04:28:13.250Z,99870.13
2023-04-07T04:33:16.182Z,99863.56
2023-04-07T04:38:19.626Z,99874.38
2023-04-07T04:43:22.560Z,99870.56
2023-04-07T04:48:25.404Z,99876.97
2023-04-07T04:53:28.788Z,99864.81
2023-04-07T04:58:32.393Z,99876.00
2023-04-07T05:03:36.017Z,99882.41
2023-04-07T05:08:39.030Z,99884.50
2023-04-07T05:13:42.014Z,99886.25
2023-04-07T05:18:44.922Z,99884.16
2023-04-07T05:23:48.042Z,99902.78
2023-04-07T05:28:51.030Z,99902.44
2023-04-07T05:33:53.913Z,99896.44
2023-04-07T05:38:56.912Z,99895.38
2023-04-07T05:43:59.700Z,99900.25
2023-04-07T05:49:16.812Z,99906.03
2023-04-07T05:54:22.759Z,99906.75
2023-04-07T05:59:26.536Z,99906.47
2023-04-07T06:04:29.703Z,99900.16
2023-04-07T06:09:32.726Z,99898.13
2023-04-07T06:14:35.719Z,99897.00
2023-04-07T06:19:38.701Z,99897.88
2023-04-07T06:24:41.881Z,99908.41
2023-04-07T06:29:44.968Z,99908.44
2023-04-07T06:34:48.014Z,99916.59
2023-04-07T06:39:51.140Z,99922.97
2023-04-07T06:44:53.929Z,99915.19
2023-04-07T06:49:56.837Z,99924.47
2023-04-07T06:54:59.800Z,99933.31
2023-04-07T07:00:02.982Z,99941.78
2023-04-07T07:05:11.669Z,99954.41
2023-04-07T07:10:14.444Z,99957.91
2023-04-07T07:15:18.166Z,99963.25
2023-04-07T07:20:23.548Z,99974.22
2023-04-07T07:25:29.705Z,99980.38
2023-04-07T07:30:32.847Z,99989.22
2023-04-07T07:35:37.971Z,99989.72
2023-04-07T07:40:41.233Z,99988.19
2023-04-07T07:45:44.381Z,99996.47
2023-04-07T07:50:48.474Z,99994.88
2023-04-07T07:55:51.927Z,100009.84
2023-04-07T08:00:55.094Z,100012.06
2023-04-07T08:05:58.149Z,100009.09
2023-04-07T08:11:01.309Z,100009.84
2023-04-07T08:16:04.616Z,100011.94
2023-04-07T08:21:07.690Z,100016.66
2023-04-07T08:26:11.105Z,100026.13
2023-04-07T08:31:14.060Z,100020.34
2023-04-07T08:36:17.013Z,100021.84
2023-04-07T08:41:47.284Z,100019.84
2023-04-07T08:46:56.200Z,100019.28
2023-04-07T08:52:04.060Z,100027.06
2023-04-07T08:57:09.091Z,100020.19
2023-04-07T09:02:12.175Z,100023.06
2023-04-07T09:07:15.820Z,100018.09
2023-04-07T09:12:19.078Z,100018.09
2023-04-07T09:17:22.396Z,100016.66
2023-04-07T09:22:54.970Z,100017.09
2023-04-07T09:28:04.842Z,100017.91
2023-04-07T09:33:07.939Z,100019.22
2023-04-07T09:38:11.257Z,100017.50
2023-04-07T09:43:19.492Z,100011.38
2023-04-07T09:48:22.424Z,100021.88
2023-04-07T09:53:49.583Z,100022.34
2023-04-07T09:58:53.349Z,100025.81
2023-04-07T10:03:57.141Z,100028.81
2023-04-07T10:09:02.052Z,100022.88
2023-04-07T10:14:05.709Z,100028.31
2023-04-07T10:19:09.295Z,100030.13
2023-04-07T10:24:51.755Z,100029.84
2023-04-07T10:29:55.721Z,100036.06
2023-04-07T10:35:01.312Z,100025.81
2023-04-07T10:40:19.625Z,100026.47
2023-04-07T10:45:48.391Z,100031.16
2023-04-07T10:51:07.975Z,100033.50
2023-04-07T10:56:11.164Z,100028.47
2023-04-07T11:01:14.071Z,100026.06
2023-04-07T11:06:17.071Z,100036.13
2023-04-07T11:11:41.759Z,100031.50
2023-04-07T11:16:45.864Z,100036.13
2023-04-07T11:21:49.291Z,100043.31
2023-04-07T11:26:52.278Z,100034.00
2023-04-07T11:31:58.460Z,100039.28
2023-04-07T11:37:25.001Z,100036.22
2023-04-07T11:42:36.835Z,100029.53
2023-04-07T11:47:40.968Z,100029.13
2023-04-07T11:52:48.875Z,100041.88
2023-04-07T11:57:52.781Z,100036.44
2023-04-07T12:02:56.741Z,100034.88
2023-04-07T12:08:00.369Z,100031.66
2023-04-07T12:13:03.566Z,100034.19
2023-04-07T12:18:06.976Z,100027.66
2023-04-07T12:23:09.999Z,100026.47
2023-04-07T12:28:12.967Z,100031.31
2023-04-07T12:33:15.987Z,100029.13
2023-04-07T12:38:19.098Z,100023.66
2023-04-07T12:43:22.075Z,100026.78
2023-04-07T12:48:27.396Z,100026.72
2023-04-07T12:53:30.420Z,100031.69
2023-04-07T12:58:33.455Z,100039.09
2023-04-07T13:03:36.604Z,100036.34
2023-04-07T13:08:40.841Z,100038.59
2023-04-07T13:13:45.087Z,100035.88
2023-04-07T13:18:48.091Z,100040.47
2023-04-07T13:23:51.686Z,100039.66
2023-04-07T13:28:54.753Z,100033.81
2023-04-07T13:33:57.727Z,100042.72
2023-04-07T13:39:00.790Z,100035.88
2023-04-07T13:44:03.781Z,100036.53
2023-04-07T13:49:07.505Z,100041.16
2023-04-07T13:54:10.758Z,100046.19
2023-04-07T13:59:13.694Z,100048.84
2023-04-07T14:04:16.754Z,100043.31
2023-04-07T14:09:20.029Z,100039.13
2023-04-07T14:14:23.387Z,100045.50
2023-04-07T14:19:26.498Z,100044.69
2023-04-07T14:24:29.462Z,100050.63
2023-04-07T14:29:32.777Z,100046.03
2023-04-07T14:34:35.919Z,100057.97
2023-04-07T14:39:39.519Z,100057.41
2023-04-07T14:44:42.885Z,100048.97
2023-04-07T14:49:45.924Z,100053.56
2023-04-07T14:54:49.122Z,100054.41
2023-04-07T14:59:52.181Z,100045.94
2023-04-07T15:04:55.794Z,100049.41
2023-04-07T15:09:59.906Z,100060.94
2023-04-07T15:15:03.949Z,100059.97
2023-04-07T15:20:07.576Z,100060.69
2023-04-07T15:25:10.665Z,100050.00
2023-04-07T15:30:13.829Z,100054.72
2023-04-07T15:35:17.331Z,100063.09
2023-04-07T15:40:20.748Z,100062.53
2023-04-07T15:45:23.897Z,100066.31
2023-04-07T15:50:29.924Z,100066.72
2023-04-07T15:55:34.801Z,100063.38
2023-04-07T16:00:39.305Z,100064.50
2023-04-07T16:05:42.301Z,100070.19
2023-04-07T16:10:45.760Z,100074.94
2023-04-07T16:15:48.665Z,100073.41
2023-04-07T16:20:51.811Z,100074.69
2023-04-07T16:25:54.717Z,100077.75
2023-04-07T16:30:57.547Z,100089.53
2023-04-07T16:36:00.531Z,100094.97
2023-04-07T16:41:04.811Z,100094.56
2023-04-07T16:46:09.280Z,100095.09
2023-04-07T16:51:19.594Z,100105.78
2023-04-07T16:56:24.854Z,100104.38
2023-04-07T17:01:30.143Z,100114.22
2023-04-07T17:06:33.207Z,100115.56
2023-04-07T17:11:36.205Z,100121.94
2023-04-07T17:16:39.765Z,100121.94
2023-04-07T17:21:43.317Z,100124.53
2023-04-07T17:26:46.680Z,100132.00
2023-04-07T17:31:49.947Z,100132.97
2023-04-07T17:36:52.891Z,100145.69
2023-04-07T17:41:55.771Z,100149.25
2023-04-07T17:46:59.063Z,100161.03
2023-04-07T17:52:02.056Z,100172.75
2023-04-07T17:57:06.518Z,100184.41
2023-04-07T18:02:10.312Z,100180.81
2023-04-07T18:07:13.581Z,100201.59
2023-04-07T18:12:16.499Z,100188.69
2023-04-07T18:17:19.495Z,100204.28
2023-04-07T18:22:22.680Z,100205.91
2023-04-07T18:27:28.407Z,100217.66
2023-04-07T18:32:31.441Z,100217.78
2023-04-07T18:37:34.532Z,100232.75
2023-04-07T18:42:37.467Z,100231.91
2023-04-07T18:47:40.525Z,100231.31
2023-04-07T18:52:43.654Z,100224.97
2023-04-07T18:57:46.790Z,100238.13
2023-04-07T19:02:49.894Z,100233.69
2023-04-07T19:07:53.009Z,100236.47
2023-04-07T19:12:56.040Z,100242.94
2023-04-07T19:17:59.797Z,100242.47
2023-04-07T19:23:08.297Z,100252.03
2023-04-07T19:28:11.606Z,100252.81
2023-04-07T19:33:14.728Z,100244.69
2023-04-07T19:38:18.319Z,100253.91
2023-04-07T19:43:21.327Z,100263.16
2023-04-07T19:48:25.352Z,100258.28
2023-04-07T19:53:29.377Z,100274.28
2023-04-07T19:58:34.475Z,100263.44
2023-04-07T20:03:39.897Z,100270.13
2023-04-07T20:08:44.327Z,100275.53
2023-04-07T20:13:49.153Z,100264.13
2023-04-07T20:18:52.366Z,100266.91
2023-04-07T20:23:55.274Z,100261.91
2023-04-07T20:28:58.244Z,100261.78
2023-04-07T20:34:01.363Z,100273.28
2023-04-07T20:39:04.373Z,100279.16
2023-04-07T20:44:09.447Z,100277.34
2023-04-07T20:49:12.474Z,100265.41
2023-04-07T20:54:17.019Z,100281.03
2023-04-07T20:59:19.923Z,100287.38
2023-04-07T21:04:24.764Z,100296.94
2023-04-07T21:09:28.002Z,100287.97
2023-04-07T21:14:32.208Z,100289.66
2023-04-07T21:19:36.733Z,100294.31
2023-04-07T21:24:40.246Z,100295.50
2023-04-07T21:29:43.234Z,100291.69
2023-04-07T21:34:46.248Z,100286.09
2023-04-07T21:39:52.767Z,100301.84
2023-04-07T21:44:55.889Z,100292.53
2023-04-07T21:49:59.870Z,100288.22
2023-04-07T21:55:02.884Z,100296.47
2023-04-07T22:00:09.626Z,100293.13
2023-04-07T22:05:12.701Z,100298.66
2023-04-07T22:10:15.815Z,100293.38
2023-04-07T22:15:19.047Z,100299.44
2023-04-07T22:20:22.356Z,100304.94
2023-04-07T22:25:26.012Z,100310.88
2023-04-07T22:30:29.073Z,100307.16
2023-04-07T22:35:32.186Z,100308.56
2023-04-07T22:40:35.403Z,100317.63
2023-04-07T22:45:38.383Z,100320.34
2023-04-07T22:50:41.292Z,100327.88
2023-04-07T22:55:44.393Z,100324.22
2023-04-07T23:00:47.909Z,100321.94
2023-04-07T23:05:50.917Z,100329.00
2023-04-07T23:10:54.031Z,100330.03
2023-04-07T23:15:58.122Z,100325.03
2023-04-07T23:21:01.647Z,100325.59
2023-04-07T23:26:06.796Z,100321.25
2023-04-07T23:31:09.884Z,100326.75
2023-04-07T23:36:12.835Z,100332.81
2023-04-07T23:41:16.437Z,100342.25
2023-04-07T23:46:19.581Z,100331.53
2023-04-07T23:51:22.927Z,100340.13
2023-04-07T23:56:26.224Z,100338.13
